Terminal Aerodrome Forecast
Issued by NWS

Home | Current Version | Previous Version | Text Only | Print | Product List | Glossary On
Versions: 1 2 3 4 5 6 7 8 9 10 11 12 13
371
FTUS45 KRIW 141720
TAFRKS
TAF
KRKS 141720Z 1418/1518 26028G38KT P6SM SCT025 BKN050
     FM150200 26018G26KT P6SM VCSH SCT020 BKN040
     FM150800 27020G28KT 3SM -SN BLSN SCT015 OVC030=

USA.gov is the U.S. government's official web portal to all federal, state and local government web resources and services.